sensor_id;sensor_type;location;lat;lon;timestamp;pressure;altitude;pressure_sealevel;temperature;humidity
21111;BME280;10713;51.912;4.494;2023-03-09T00:01:20;99198.88;;;1.86;100.00
21111;BME280;10713;51.912;4.494;2023-03-09T00:03:46;99196.31;;;1.85;100.00
21111;BME280;10713;51.912;4.494;2023-03-09T00:06:11;99206.72;;;1.85;100.00
21111;BME280;10713;51.912;4.494;2023-03-09T00:08:37;99198.81;;;1.88;100.00
21111;BME280;10713;51.912;4.494;2023-03-09T00:11:06;99202.13;;;1.93;100.00
21111;BME280;10713;51.912;4.494;2023-03-09T00:13:32;99200.50;;;1.89;100.00
21111;BME280;10713;51.912;4.494;2023-03-09T00:16:09;99202.34;;;1.85;100.00
21111;BME280;10713;51.912;4.494;2023-03-09T00:18:35;99223.13;;;1.87;100.00
21111;BME280;10713;51.912;4.494;2023-03-09T00:21:00;99245.44;;;1.95;100.00
21111;BME280;10713;51.912;4.494;2023-03-09T00:23:28;99250.03;;;1.86;100.00
21111;BME280;10713;51.912;4.494;2023-03-09T00:25:53;99261.03;;;1.95;100.00
21111;BME280;10713;51.912;4.494;2023-03-09T00:28:19;99262.75;;;1.96;100.00
21111;BME280;10713;51.912;4.494;2023-03-09T00:30:44;99256.47;;;2.03;100.00
21111;BME280;10713;51.912;4.494;2023-03-09T00:33:09;99260.00;;;2.01;100.00
21111;BME280;10713;51.912;4.494;2023-03-09T00:35:35;99230.75;;;1.93;100.00
21111;BME280;10713;51.912;4.494;2023-03-09T00:38:02;99226.03;;;1.77;100.00
21111;BME280;10713;51.912;4.494;2023-03-09T00:40:28;99227.84;;;1.74;100.00
21111;BME280;10713;51.912;4.494;2023-03-09T00:42:53;99250.38;;;1.75;100.00
21111;BME280;10713;51.912;4.494;2023-03-09T00:45:18;99261.34;;;1.85;100.00
21111;BME280;10713;51.912;4.494;2023-03-09T00:47:46;99255.00;;;1.95;100.00
21111;BME280;10713;51.912;4.494;2023-03-09T00:50:12;99251.38;;;1.99;100.00
21111;BME280;10713;51.912;4.494;2023-03-09T00:52:37;99255.75;;;1.98;100.00
21111;BME280;10713;51.912;4.494;2023-03-09T00:55:03;99251.56;;;1.93;100.00
21111;BME280;10713;51.912;4.494;2023-03-09T00:57:29;99243.03;;;1.88;100.00
21111;BME280;10713;51.912;4.494;2023-03-09T00:59:55;99261.56;;;1.77;100.00
21111;BME280;10713;51.912;4.494;2023-03-09T01:02:21;99266.06;;;1.72;100.00
21111;BME280;10713;51.912;4.494;2023-03-09T01:04:47;99247.06;;;1.68;100.00
21111;BME280;10713;51.912;4.494;2023-03-09T01:07:13;99248.97;;;1.63;100.00
21111;BME280;10713;51.912;4.494;2023-03-09T01:09:38;99267.19;;;1.63;100.00
21111;BME280;10713;51.912;4.494;2023-03-09T01:12:05;99291.25;;;1.70;100.00
21111;BME280;10713;51.912;4.494;2023-03-09T01:14:32;99293.66;;;1.77;100.00
21111;BME280;10713;51.912;4.494;2023-03-09T01:16:57;99309.09;;;1.84;100.00
21111;BME280;10713;51.912;4.494;2023-03-09T01:19:23;99315.81;;;1.91;100.00
21111;BME280;10713;51.912;4.494;2023-03-09T01:21:48;99320.84;;;1.97;100.00
21111;BME280;10713;51.912;4.494;2023-03-09T01:24:13;99314.50;;;2.06;100.00
21111;BME280;10713;51.912;4.494;2023-03-09T01:26:39;99306.00;;;2.00;100.00
21111;BME280;10713;51.912;4.494;2023-03-09T01:29:04;99297.66;;;1.89;100.00
21111;BME280;10713;51.912;4.494;2023-03-09T01:31:29;99285.53;;;1.88;100.00
21111;BME280;10713;51.912;4.494;2023-03-09T01:33:55;99278.00;;;1.79;100.00
21111;BME280;10713;51.912;4.494;2023-03-09T01:36:20;99274.63;;;1.75;100.00
21111;BME280;10713;51.912;4.494;2023-03-09T01:38:46;99286.53;;;1.84;100.00
21111;BME280;10713;51.912;4.494;2023-03-09T01:41:13;99307.34;;;1.84;100.00
21111;BME280;10713;51.912;4.494;2023-03-09T01:43:42;99309.97;;;1.83;100.00
21111;BME280;10713;51.912;4.494;2023-03-09T01:51:25;99332.72;;;2.07;100.00
21111;BME280;10713;51.912;4.494;2023-03-09T01:53:52;99330.13;;;2.06;100.00
21111;BME280;10713;51.912;4.494;2023-03-09T01:56:19;99336.06;;;2.11;100.00
21111;BME280;10713;51.912;4.494;2023-03-09T01:58:48;99314.28;;;2.15;100.00
21111;BME280;10713;51.912;4.494;2023-03-09T02:01:15;99310.88;;;2.11;100.00
21111;BME280;10713;51.912;4.494;2023-03-09T02:03:45;99323.88;;;2.13;100.00
21111;BME280;10713;51.912;4.494;2023-03-09T02:06:14;99324.81;;;2.10;100.00
21111;BME280;10713;51.912;4.494;2023-03-09T02:08:45;99337.91;;;2.07;100.00
21111;BME280;10713;51.912;4.494;2023-03-09T02:11:13;99335.22;;;2.10;100.00
21111;BME280;10713;51.912;4.494;2023-03-09T02:13:44;99335.94;;;2.15;100.00
21111;BME280;10713;51.912;4.494;2023-03-09T02:16:11;99349.19;;;2.08;100.00
21111;BME280;10713;51.912;4.494;2023-03-09T02:18:36;99365.47;;;2.14;100.00
21111;BME280;10713;51.912;4.494;2023-03-09T02:23:37;99364.88;;;2.05;100.00
21111;BME280;10713;51.912;4.494;2023-03-09T02:29:08;99356.50;;;1.95;100.00
21111;BME280;10713;51.912;4.494;2023-03-09T02:31:34;99359.78;;;2.00;100.00
21111;BME280;10713;51.912;4.494;2023-03-09T02:34:00;99359.00;;;1.98;100.00
21111;BME280;10713;51.912;4.494;2023-03-09T02:36:25;99364.22;;;1.98;100.00
21111;BME280;10713;51.912;4.494;2023-03-09T02:38:51;99367.38;;;2.09;100.00
21111;BME280;10713;51.912;4.494;2023-03-09T02:41:17;99374.19;;;2.13;100.00
21111;BME280;10713;51.912;4.494;2023-03-09T02:43:50;99360.97;;;2.21;100.00
21111;BME280;10713;51.912;4.494;2023-03-09T02:46:17;99365.38;;;2.17;100.00
21111;BME280;10713;51.912;4.494;2023-03-09T02:48:42;99373.16;;;2.19;100.00
21111;BME280;10713;51.912;4.494;2023-03-09T02:51:08;99358.56;;;2.13;100.00
21111;BME280;10713;51.912;4.494;2023-03-09T02:53:34;99357.91;;;2.05;100.00
21111;BME280;10713;51.912;4.494;2023-03-09T02:56:00;99368.47;;;2.00;100.00
21111;BME280;10713;51.912;4.494;2023-03-09T02:58:26;99369.31;;;2.01;100.00
21111;BME280;10713;51.912;4.494;2023-03-09T03:00:51;99371.75;;;2.07;100.00
21111;BME280;10713;51.912;4.494;2023-03-09T03:03:17;99367.66;;;1.98;100.00
21111;BME280;10713;51.912;4.494;2023-03-09T03:05:45;99368.41;;;2.02;100.00
21111;BME280;10713;51.912;4.494;2023-03-09T03:08:11;99366.66;;;2.02;100.00
21111;BME280;10713;51.912;4.494;2023-03-09T03:10:36;99365.06;;;1.98;100.00
21111;BME280;10713;51.912;4.494;2023-03-09T03:13:02;99368.41;;;2.02;100.00
21111;BME280;10713;51.912;4.494;2023-03-09T03:15:27;99380.31;;;2.11;100.00
21111;BME280;10713;51.912;4.494;2023-03-09T03:17:52;99376.75;;;2.15;100.00
21111;BME280;10713;51.912;4.494;2023-03-09T03:20:18;99374.34;;;2.07;100.00
21111;BME280;10713;51.912;4.494;2023-03-09T03:22:43;99384.97;;;1.99;100.00
21111;BME280;10713;51.912;4.494;2023-03-09T03:25:10;99400.38;;;2.07;100.00
21111;BME280;10713;51.912;4.494;2023-03-09T03:27:35;99404.09;;;1.98;100.00
21111;BME280;10713;51.912;4.494;2023-03-09T03:30:01;99403.53;;;1.87;100.00
21111;BME280;10713;51.912;4.494;2023-03-09T03:32:27;99401.03;;;1.83;100.00
21111;BME280;10713;51.912;4.494;2023-03-09T03:34:53;99385.59;;;1.76;100.00
21111;BME280;10713;51.912;4.494;2023-03-09T03:37:18;99389.88;;;1.79;100.00
21111;BME280;10713;51.912;4.494;2023-03-09T03:39:44;99419.25;;;1.83;100.00
21111;BME280;10713;51.912;4.494;2023-03-09T03:42:09;99419.09;;;1.89;100.00
21111;BME280;10713;51.912;4.494;2023-03-09T03:44:34;99423.50;;;1.87;100.00
21111;BME280;10713;51.912;4.494;2023-03-09T03:47:00;99426.13;;;1.85;100.00
21111;BME280;10713;51.912;4.494;2023-03-09T03:49:25;99425.97;;;1.91;100.00
21111;BME280;10713;51.912;4.494;2023-03-09T03:51:51;99417.38;;;1.88;100.00
21111;BME280;10713;51.912;4.494;2023-03-09T03:54:16;99420.06;;;1.85;100.00
21111;BME280;10713;51.912;4.494;2023-03-09T03:56:42;99441.63;;;1.90;100.00
21111;BME280;10713;51.912;4.494;2023-03-09T03:59:07;99451.06;;;1.94;100.00
21111;BME280;10713;51.912;4.494;2023-03-09T04:01:32;99457.75;;;2.02;100.00
21111;BME280;10713;51.912;4.494;2023-03-09T04:03:58;99455.00;;;2.09;100.00
21111;BME280;10713;51.912;4.494;2023-03-09T04:06:23;99462.19;;;1.99;100.00
21111;BME280;10713;51.912;4.494;2023-03-09T04:08:48;99460.63;;;1.93;100.00
21111;BME280;10713;51.912;4.494;2023-03-09T04:11:14;99459.00;;;1.89;100.00
21111;BME280;10713;51.912;4.494;2023-03-09T04:13:39;99461.72;;;1.85;100.00
21111;BME280;10713;51.912;4.494;2023-03-09T04:16:05;99460.16;;;1.77;100.00
21111;BME280;10713;51.912;4.494;2023-03-09T04:18:30;99463.41;;;1.86;100.00
21111;BME280;10713;51.912;4.494;2023-03-09T04:20:55;99476.06;;;1.99;100.00
21111;BME280;10713;51.912;4.494;2023-03-09T04:23:21;99486.41;;;2.02;100.00
21111;BME280;10713;51.912;4.494;2023-03-09T04:25:54;99507.19;;;2.04;100.00
21111;BME280;10713;51.912;4.494;2023-03-09T04:28:19;99506.44;;;2.00;100.00
21111;BME280;10713;51.912;4.494;2023-03-09T04:30:45;99504.75;;;1.98;100.00
21111;BME280;10713;51.912;4.494;2023-03-09T04:33:10;99512.56;;;1.98;100.00
21111;BME280;10713;51.912;4.494;2023-03-09T04:35:36;99506.59;;;1.93;100.00
21111;BME280;10713;51.912;4.494;2023-03-09T04:38:01;99502.34;;;1.89;100.00
21111;BME280;10713;51.912;4.494;2023-03-09T04:40:26;99497.31;;;1.83;100.00
21111;BME280;10713;51.912;4.494;2023-03-09T04:42:52;99512.94;;;1.83;100.00
21111;BME280;10713;51.912;4.494;2023-03-09T04:45:17;99519.03;;;1.82;100.00
21111;BME280;10713;51.912;4.494;2023-03-09T04:47:43;99523.25;;;1.86;100.00
21111;BME280;10713;51.912;4.494;2023-03-09T04:50:09;99521.53;;;1.86;100.00
21111;BME280;10713;51.912;4.494;2023-03-09T04:52:34;99523.19;;;1.89;100.00
21111;BME280;10713;51.912;4.494;2023-03-09T04:54:59;99516.00;;;1.98;100.00
21111;BME280;10713;51.912;4.494;2023-03-09T04:57:25;99517.78;;;1.96;100.00
21111;BME280;10713;51.912;4.494;2023-03-09T04:59:51;99503.25;;;1.88;100.00
21111;BME280;10713;51.912;4.494;2023-03-09T05:02:16;99498.28;;;1.78;100.00
21111;BME280;10713;51.912;4.494;2023-03-09T05:04:42;99507.06;;;1.74;100.00
21111;BME280;10713;51.912;4.494;2023-03-09T05:07:07;99500.16;;;1.73;100.00
21111;BME280;10713;51.912;4.494;2023-03-09T05:09:32;99507.13;;;1.71;100.00
21111;BME280;10713;51.912;4.494;2023-03-09T05:11:58;99516.75;;;1.69;100.00
21111;BME280;10713;51.912;4.494;2023-03-09T05:14:23;99523.63;;;1.70;100.00
21111;BME280;10713;51.912;4.494;2023-03-09T05:16:49;99540.09;;;1.71;100.00
21111;BME280;10713;51.912;4.494;2023-03-09T05:19:18;99538.22;;;1.77;100.00
21111;BME280;10713;51.912;4.494;2023-03-09T05:21:44;99545.88;;;1.84;100.00
21111;BME280;10713;51.912;4.494;2023-03-09T05:24:09;99553.69;;;1.84;100.00
21111;BME280;10713;51.912;4.494;2023-03-09T05:26:34;99553.56;;;1.88;100.00
21111;BME280;10713;51.912;4.494;2023-03-09T05:29:00;99556.31;;;1.82;100.00
21111;BME280;10713;51.912;4.494;2023-03-09T05:31:25;99554.53;;;1.84;100.00
21111;BME280;10713;51.912;4.494;2023-03-09T05:33:52;99561.50;;;1.84;100.00
21111;BME280;10713;51.912;4.494;2023-03-09T05:36:20;99559.84;;;1.79;100.00
21111;BME280;10713;51.912;4.494;2023-03-09T05:38:47;99558.00;;;1.83;100.00
21111;BME280;10713;51.912;4.494;2023-03-09T05:41:13;99545.06;;;1.82;100.00
21111;BME280;10713;51.912;4.494;2023-03-09T05:43:39;99539.09;;;1.76;100.00
21111;BME280;10713;51.912;4.494;2023-03-09T05:46:09;99549.34;;;1.83;100.00
21111;BME280;10713;51.912;4.494;2023-03-09T05:48:35;99548.34;;;1.88;100.00
21111;BME280;10713;51.912;4.494;2023-03-09T05:51:01;99546.72;;;1.84;100.00
21111;BME280;10713;51.912;4.494;2023-03-09T05:53:26;99545.97;;;1.79;100.00
21111;BME280;10713;51.912;4.494;2023-03-09T05:55:52;99551.94;;;1.84;100.00
21111;BME280;10713;51.912;4.494;2023-03-09T05:58:18;99562.38;;;1.83;100.00
21111;BME280;10713;51.912;4.494;2023-03-09T06:00:44;99577.03;;;1.87;100.00
21111;BME280;10713;51.912;4.494;2023-03-09T06:03:10;99578.47;;;1.98;100.00
21111;BME280;10713;51.912;4.494;2023-03-09T06:05:35;99583.53;;;2.05;100.00
21111;BME280;10713;51.912;4.494;2023-03-09T06:08:00;99588.72;;;2.05;100.00
21111;BME280;10713;51.912;4.494;2023-03-09T06:10:26;99591.34;;;2.05;100.00
21111;BME280;10713;51.912;4.494;2023-03-09T06:12:51;99602.56;;;2.07;100.00
21111;BME280;10713;51.912;4.494;2023-03-09T06:15:17;99606.13;;;2.02;100.00
21111;BME280;10713;51.912;4.494;2023-03-09T06:17:42;99614.78;;;2.03;100.00
21111;BME280;10713;51.912;4.494;2023-03-09T06:20:08;99616.31;;;2.12;100.00
21111;BME280;10713;51.912;4.494;2023-03-09T06:22:34;99617.19;;;2.12;100.00
21111;BME280;10713;51.912;4.494;2023-03-09T06:24:59;99628.47;;;2.13;100.00
21111;BME280;10713;51.912;4.494;2023-03-09T06:27:25;99647.53;;;2.13;100.00
21111;BME280;10713;51.912;4.494;2023-03-09T06:29:52;99652.72;;;2.15;100.00
21111;BME280;10713;51.912;4.494;2023-03-09T06:32:19;99645.53;;;2.24;100.00
21111;BME280;10713;51.912;4.494;2023-03-09T06:34:44;99644.69;;;2.22;100.00
21111;BME280;10713;51.912;4.494;2023-03-09T06:37:10;99634.28;;;2.22;100.00
21111;BME280;10713;51.912;4.494;2023-03-09T06:39:35;99634.34;;;2.21;100.00
21111;BME280;10713;51.912;4.494;2023-03-09T06:42:00;99638.78;;;2.16;100.00
21111;BME280;10713;51.912;4.494;2023-03-09T06:44:25;99647.50;;;2.15;100.00
21111;BME280;10713;51.912;4.494;2023-03-09T06:46:51;99658.69;;;2.18;100.00
21111;BME280;10713;51.912;4.494;2023-03-09T06:49:16;99668.22;;;2.19;100.00
21111;BME280;10713;51.912;4.494;2023-03-09T06:51:41;99664.59;;;2.27;100.00
21111;BME280;10713;51.912;4.494;2023-03-09T06:54:07;99656.00;;;2.21;100.00
21111;BME280;10713;51.912;4.494;2023-03-09T06:56:32;99658.56;;;2.23;100.00
21111;BME280;10713;51.912;4.494;2023-03-09T06:58:58;99668.97;;;2.24;100.00
21111;BME280;10713;51.912;4.494;2023-03-09T07:01:23;99679.28;;;2.29;100.00
21111;BME280;10713;51.912;4.494;2023-03-09T07:03:49;99686.88;;;2.38;100.00
21111;BME280;10713;51.912;4.494;2023-03-09T07:06:14;99689.53;;;2.35;100.00
21111;BME280;10713;51.912;4.494;2023-03-09T07:08:39;99693.03;;;2.34;100.00
21111;BME280;10713;51.912;4.494;2023-03-09T07:11:05;99702.50;;;2.37;100.00
21111;BME280;10713;51.912;4.494;2023-03-09T07:13:30;99719.75;;;2.42;100.00
21111;BME280;10713;51.912;4.494;2023-03-09T07:15:57;99724.09;;;2.42;100.00
21111;BME280;10713;51.912;4.494;2023-03-09T07:18:22;99716.28;;;2.42;100.00
21111;BME280;10713;51.912;4.494;2023-03-09T07:20:48;99718.81;;;2.45;100.00
21111;BME280;10713;51.912;4.494;2023-03-09T07:23:13;99725.69;;;2.49;100.00
21111;BME280;10713;51.912;4.494;2023-03-09T07:25:38;99722.34;;;2.42;100.00
21111;BME280;10713;51.912;4.494;2023-03-09T07:28:05;99731.00;;;2.43;100.00
21111;BME280;10713;51.912;4.494;2023-03-09T07:30:31;99737.16;;;2.40;100.00
21111;BME280;10713;51.912;4.494;2023-03-09T07:32:57;99754.75;;;2.31;100.00
21111;BME280;10713;51.912;4.494;2023-03-09T07:35:23;99740.88;;;2.30;100.00
21111;BME280;10713;51.912;4.494;2023-03-09T07:37:48;99758.78;;;2.44;100.00
21111;BME280;10713;51.912;4.494;2023-03-09T07:40:14;99772.56;;;2.49;100.00
21111;BME280;10713;51.912;4.494;2023-03-09T07:42:39;99758.59;;;2.52;100.00
21111;BME280;10713;51.912;4.494;2023-03-09T07:45:05;99757.78;;;2.50;100.00
21111;BME280;10713;51.912;4.494;2023-03-09T07:47:31;99761.03;;;2.59;100.00
21111;BME280;10713;51.912;4.494;2023-03-09T07:49:58;99752.19;;;2.65;100.00
21111;BME280;10713;51.912;4.494;2023-03-09T07:52:24;99762.53;;;2.69;100.00
21111;BME280;10713;51.912;4.494;2023-03-09T07:54:56;99762.31;;;2.77;100.00
21111;BME280;10713;51.912;4.494;2023-03-09T07:57:22;99757.09;;;2.79;100.00
21111;BME280;10713;51.912;4.494;2023-03-09T07:59:52;99750.78;;;2.87;100.00
21111;BME280;10713;51.912;4.494;2023-03-09T08:02:18;99758.00;;;2.76;100.00
21111;BME280;10713;51.912;4.494;2023-03-09T08:04:43;99752.81;;;2.75;100.00
21111;BME280;10713;51.912;4.494;2023-03-09T08:07:08;99760.63;;;2.76;100.00
21111;BME280;10713;51.912;4.494;2023-03-09T08:09:34;99753.69;;;2.75;100.00
21111;BME280;10713;51.912;4.494;2023-03-09T08:11:59;99754.72;;;2.69;100.00
21111;BME280;10713;51.912;4.494;2023-03-09T08:14:24;99743.44;;;2.69;100.00
21111;BME280;10713;51.912;4.494;2023-03-09T08:16:50;99752.91;;;2.71;100.00
21111;BME280;10713;51.912;4.494;2023-03-09T08:19:16;99754.56;;;2.76;100.00
21111;BME280;10713;51.912;4.494;2023-03-09T08:21:45;99773.56;;;2.79;100.00
21111;BME280;10713;51.912;4.494;2023-03-09T08:24:10;99770.28;;;2.71;100.00
21111;BME280;10713;51.912;4.494;2023-03-09T08:26:36;99770.44;;;2.65;100.00
21111;BME280;10713;51.912;4.494;2023-03-09T08:29:01;99797.00;;;2.81;100.00
21111;BME280;10713;51.912;4.494;2023-03-09T08:31:27;99798.72;;;2.82;100.00
21111;BME280;10713;51.912;4.494;2023-03-09T08:33:52;99806.38;;;2.88;100.00
21111;BME280;10713;51.912;4.494;2023-03-09T08:36:19;99807.31;;;2.85;100.00
21111;BME280;10713;51.912;4.494;2023-03-09T08:38:46;99821.25;;;2.83;100.00
21111;BME280;10713;51.912;4.494;2023-03-09T08:41:12;99841.97;;;2.89;100.00
21111;BME280;10713;51.912;4.494;2023-03-09T08:43:38;99820.91;;;2.98;100.00
21111;BME280;10713;51.912;4.494;2023-03-09T08:46:04;99827.59;;;3.08;100.00
21111;BME280;10713;51.912;4.494;2023-03-09T08:48:29;99823.03;;;3.16;100.00
21111;BME280;10713;51.912;4.494;2023-03-09T08:50:55;99808.22;;;3.19;100.00
21111;BME280;10713;51.912;4.494;2023-03-09T08:53:22;99807.56;;;3.10;100.00
21111;BME280;10713;51.912;4.494;2023-03-09T08:55:47;99807.63;;;3.07;100.00
21111;BME280;10713;51.912;4.494;2023-03-09T08:58:12;99809.41;;;3.05;100.00
21111;BME280;10713;51.912;4.494;2023-03-09T09:00:38;99816.38;;;3.06;100.00
21111;BME280;10713;51.912;4.494;2023-03-09T09:03:04;99822.44;;;3.07;100.00
21111;BME280;10713;51.912;4.494;2023-03-09T09:05:30;99818.00;;;3.10;100.00
21111;BME280;10713;51.912;4.494;2023-03-09T09:07:55;99818.81;;;3.12;100.00
21111;BME280;10713;51.912;4.494;2023-03-09T09:10:20;99812.44;;;3.24;100.00
21111;BME280;10713;51.912;4.494;2023-03-09T09:12:46;99820.91;;;3.32;100.00
21111;BME280;10713;51.912;4.494;2023-03-09T09:15:11;99844.31;;;3.35;100.00
21111;BME280;10713;51.912;4.494;2023-03-09T09:17:39;99835.13;;;3.21;100.00
21111;BME280;10713;51.912;4.494;2023-03-09T09:20:05;99846.19;;;3.29;100.00
21111;BME280;10713;51.912;4.494;2023-03-09T09:22:32;99863.53;;;3.31;100.00
21111;BME280;10713;51.912;4.494;2023-03-09T09:24:57;99864.16;;;3.41;100.00
21111;BME280;10713;51.912;4.494;2023-03-09T09:27:24;99856.09;;;3.50;100.00
21111;BME280;10713;51.912;4.494;2023-03-09T09:29:49;99858.63;;;3.53;100.00
21111;BME280;10713;51.912;4.494;2023-03-09T09:32:18;99857.88;;;3.48;100.00
21111;BME280;10713;51.912;4.494;2023-03-09T09:34:44;99860.47;;;3.50;100.00
21111;BME280;10713;51.912;4.494;2023-03-09T09:37:09;99856.88;;;3.54;100.00
21111;BME280;10713;51.912;4.494;2023-03-09T09:39:37;99851.72;;;3.52;100.00
21111;BME280;10713;51.912;4.494;2023-03-09T09:42:12;99857.00;;;3.49;100.00
21111;BME280;10713;51.912;4.494;2023-03-09T09:44:44;99854.44;;;3.46;100.00
21111;BME280;10713;51.912;4.494;2023-03-09T09:47:16;99862.22;;;3.49;100.00
21111;BME280;10713;51.912;4.494;2023-03-09T09:49:44;99859.66;;;3.46;100.00
21111;BME280;10713;51.912;4.494;2023-03-09T09:55:26;99845.00;;;3.42;100.00
21111;BME280;10713;51.912;4.494;2023-03-09T10:00:54;99851.22;;;3.38;100.00
21111;BME280;10713;51.912;4.494;2023-03-09T10:03:32;99848.53;;;3.41;100.00
21111;BME280;10713;51.912;4.494;2023-03-09T10:06:04;99833.88;;;3.35;100.00
21111;BME280;10713;51.912;4.494;2023-03-09T10:13:41;99823.09;;;3.49;100.00
21111;BME280;10713;51.912;4.494;2023-03-09T10:16:15;99838.88;;;3.43;100.00
21111;BME280;10713;51.912;4.494;2023-03-09T10:18:47;99839.09;;;3.35;100.00
21111;BME280;10713;51.912;4.494;2023-03-09T10:21:19;99834.97;;;3.27;100.00
21111;BME280;10713;51.912;4.494;2023-03-09T10:23:46;99835.81;;;3.27;100.00
21111;BME280;10713;51.912;4.494;2023-03-09T10:28:42;99850.97;;;3.47;100.00
21111;BME280;10713;51.912;4.494;2023-03-09T10:31:17;99843.31;;;3.41;100.00
21111;BME280;10713;51.912;4.494;2023-03-09T10:34:04;99847.44;;;3.48;100.00
21111;BME280;10713;51.912;4.494;2023-03-09T10:36:40;99854.41;;;3.49;100.00
21111;BME280;10713;51.912;4.494;2023-03-09T10:39:16;99850.91;;;3.49;100.00
21111;BME280;10713;51.912;4.494;2023-03-09T10:41:41;99858.03;;;3.42;100.00
21111;BME280;10713;51.912;4.494;2023-03-09T10:44:07;99852.25;;;3.31;100.00
21111;BME280;10713;51.912;4.494;2023-03-09T10:46:54;99854.84;;;3.31;100.00
21111;BME280;10713;51.912;4.494;2023-03-09T10:49:19;99860.22;;;3.25;100.00
21111;BME280;10713;51.912;4.494;2023-03-09T10:51:54;99856.03;;;3.17;100.00
21111;BME280;10713;51.912;4.494;2023-03-09T10:54:26;99860.53;;;3.12;100.00
21111;BME280;10713;51.912;4.494;2023-03-09T10:56:53;99854.34;;;3.16;100.00
21111;BME280;10713;51.912;4.494;2023-03-09T10:59:21;99854.50;;;3.10;100.00
21111;BME280;10713;51.912;4.494;2023-03-09T11:01:50;99858.09;;;3.06;100.00
21111;BME280;10713;51.912;4.494;2023-03-09T11:04:56;99853.88;;;3.01;100.00
21111;BME280;10713;51.912;4.494;2023-03-09T11:07:19;99853.00;;;3.00;100.00
21111;BME280;10713;51.912;4.494;2023-03-09T11:09:49;99848.84;;;2.91;100.00
21111;BME280;10713;51.912;4.494;2023-03-09T11:12:25;99856.91;;;2.82;100.00
21111;BME280;10713;51.912;4.494;2023-03-09T11:14:58;99852.59;;;2.80;100.00
21111;BME280;10713;51.912;4.494;2023-03-09T11:17:40;99857.75;;;2.83;100.00
21111;BME280;10713;51.912;4.494;2023-03-09T11:22:39;99857.88;;;2.78;100.00
21111;BME280;10713;51.912;4.494;2023-03-09T11:25:28;99843.78;;;2.85;100.00
21111;BME280;10713;51.912;4.494;2023-03-09T11:28:03;99836.97;;;2.80;100.00
21111;BME280;10713;51.912;4.494;2023-03-09T11:30:30;99842.31;;;2.75;100.00
21111;BME280;10713;51.912;4.494;2023-03-09T11:32:56;99840.47;;;2.79;100.00
21111;BME280;10713;51.912;4.494;2023-03-09T11:35:22;99841.19;;;2.85;100.00
21111;BME280;10713;51.912;4.494;2023-03-09T11:38:11;99843.00;;;2.83;100.00
21111;BME280;10713;51.912;4.494;2023-03-09T11:40:38;99842.16;;;2.81;100.00
21111;BME280;10713;51.912;4.494;2023-03-09T11:43:20;99841.44;;;2.75;100.00
21111;BME280;10713;51.912;4.494;2023-03-09T11:45:47;99838.09;;;2.69;100.00
21111;BME280;10713;51.912;4.494;2023-03-09T11:48:28;99841.56;;;2.68;100.00
21111;BME280;10713;51.912;4.494;2023-03-09T11:51:10;99831.88;;;2.75;100.00
21111;BME280;10713;51.912;4.494;2023-03-09T11:53:49;99838.81;;;2.76;100.00
21111;BME280;10713;51.912;4.494;2023-03-09T11:56:29;99831.06;;;2.73;100.00
21111;BME280;10713;51.912;4.494;2023-03-09T11:59:05;99833.50;;;2.79;100.00
21111;BME280;10713;51.912;4.494;2023-03-09T12:01:36;99832.50;;;2.85;100.00
21111;BME280;10713;51.912;4.494;2023-03-09T12:04:07;99838.50;;;2.88;100.00
21111;BME280;10713;51.912;4.494;2023-03-09T12:06:48;99829.00;;;2.86;100.00
21111;BME280;10713;51.912;4.494;2023-03-09T12:09:33;99828.22;;;2.82;100.00
21111;BME280;10713;51.912;4.494;2023-03-09T12:12:19;99817.94;;;2.76;100.00
21111;BME280;10713;51.912;4.494;2023-03-09T12:14:56;99812.06;;;2.68;100.00
21111;BME280;10713;51.912;4.494;2023-03-09T12:17:31;99806.31;;;2.54;100.00
21111;BME280;10713;51.912;4.494;2023-03-09T12:20:01;99801.38;;;2.41;100.00
21111;BME280;10713;51.912;4.494;2023-03-09T12:22:38;99786.53;;;2.45;100.00
21111;BME280;10713;51.912;4.494;2023-03-09T12:25:06;99779.41;;;2.53;100.00
21111;BME280;10713;51.912;4.494;2023-03-09T12:27:47;99770.91;;;2.45;100.00
21111;BME280;10713;51.912;4.494;2023-03-09T12:32:46;99757.97;;;2.40;100.00
21111;BME280;10713;51.912;4.494;2023-03-09T12:38:20;99742.72;;;2.62;100.00
21111;BME280;10713;51.912;4.494;2023-03-09T12:40:47;99746.25;;;2.60;100.00
21111;BME280;10713;51.912;4.494;2023-03-09T12:45:38;99756.06;;;2.48;100.00
21111;BME280;10713;51.912;4.494;2023-03-09T12:48:25;99769.13;;;2.47;100.00
21111;BME280;10713;51.912;4.494;2023-03-09T12:51:02;99766.34;;;2.55;100.00
21111;BME280;10713;51.912;4.494;2023-03-09T12:53:32;99769.13;;;2.47;100.00
21111;BME280;10713;51.912;4.494;2023-03-09T12:56:00;99761.19;;;2.53;100.00
21111;BME280;10713;51.912;4.494;2023-03-09T12:58:40;99754.09;;;2.58;100.00
21111;BME280;10713;51.912;4.494;2023-03-09T13:03:52;99756.59;;;2.63;100.00
21111;BME280;10713;51.912;4.494;2023-03-09T13:08:52;99765.22;;;2.66;100.00
21111;BME280;10713;51.912;4.494;2023-03-09T13:13:51;99759.09;;;2.67;100.00
21111;BME280;10713;51.912;4.494;2023-03-09T13:29:42;99759.19;;;2.99;100.00
21111;BME280;10713;51.912;4.494;2023-03-09T13:32:27;99764.31;;;3.02;100.00
21111;BME280;10713;51.912;4.494;2023-03-09T13:34:56;99755.50;;;3.07;100.00
21111;BME280;10713;51.912;4.494;2023-03-09T13:37:24;99759.94;;;3.04;100.00
21111;BME280;10713;51.912;4.494;2023-03-09T13:40:05;99739.94;;;3.04;100.00
21111;BME280;10713;51.912;4.494;2023-03-09T13:42:33;99754.00;;;2.97;100.00
21111;BME280;10713;51.912;4.494;2023-03-09T13:45:01;99741.91;;;2.94;100.00
21111;BME280;10713;51.912;4.494;2023-03-09T13:47:29;99743.50;;;3.00;100.00
21111;BME280;10713;51.912;4.494;2023-03-09T13:49:58;99745.75;;;3.14;100.00
21111;BME280;10713;51.912;4.494;2023-03-09T13:52:25;99746.59;;;3.14;100.00
21111;BME280;10713;51.912;4.494;2023-03-09T13:54:52;99735.59;;;3.03;100.00
21111;BME280;10713;51.912;4.494;2023-03-09T13:57:21;99729.88;;;2.89;100.00
21111;BME280;10713;51.912;4.494;2023-03-09T14:02:19;99721.00;;;2.96;100.00